Time,TemperatureF,DewpointF,PressureIn,WindDirection,WindDirectionDegrees,WindSpeedMPH,WindSpeedGustMPH,Humidity,HourlyPrecipIn,Conditions,Clouds,dailyrainin,SoftwareType,DateUTC
2013-06-13 00:01:00,57.7,51.6,29.99,North,0,1.2,1.2,80,0.00,CLR,,0.00,WeatherDisplay:10.37,2013-06-13 05:01:00,
2013-06-13 00:06:00,57.9,52.1,29.99,North,0,1.2,1.2,81,0.00,CLR,,0.00,WeatherDisplay:10.37,2013-06-13 05:06:00,
2013-06-13 00:11:00,57.9,52.5,29.99,North,0,1.2,1.6,82,0.00,CLR,,0.00,WeatherDisplay:10.37,2013-06-13 05:11:00,
2013-06-13 00:16:00,57.9,52.1,29.99,North,0,0.0,0.5,81,0.00,CLR,,0.00,WeatherDisplay:10.37,2013-06-13 05:16:00,
2013-06-13 00:21:00,57.4,51.6,29.99,North,0,1.2,1.2,81,0.00,CLR,,0.00,WeatherDisplay:10.37,2013-06-13 05:21:00,
2013-06-13 00:26:00,57.2,52.1,30.00,North,0,0.0,0.0,83,0.00,CLR,,0.00,WeatherDisplay:10.37,2013-06-13 05:26:00,
2013-06-13 00:31:00,57.2,52.4,30.00,North,0,2.3,2.4,84,0.00,CLR,,0.00,WeatherDisplay:10.37,2013-06-13 05:31:00,
2013-06-13 00:36:00,57.4,52.6,30.00,North,0,3.5,3.5,84,0.00,CLR,,0.00,WeatherDisplay:10.37,2013-06-13 05:36:00,
2013-06-13 00:41:00,57.6,52.4,30.00,NNW,338,1.2,1.2,83,0.00,CLR,,0.00,WeatherDisplay:10.37,2013-06-13 05:41:00,
2013-06-13 00:46:00,57.4,52.3,30.00,North,0,1.2,1.2,83,0.00,CLR,,0.00,WeatherDisplay:10.37,2013-06-13 05:46:00,
2013-06-13 00:51:00,57.0,51.9,30.00,North,0,1.2,1.2,83,0.00,CLR,,0.00,WeatherDisplay:10.37,2013-06-13 05:51:00,
2013-06-13 00:56:00,56.7,51.9,30.01,North,0,1.2,1.2,84,0.00,CLR,,0.00,WeatherDisplay:10.37,2013-06-13 05:56:00,
2013-06-13 01:01:00,56.5,51.7,30.01,North,0,1.2,1.2,84,0.00,CLR,,0.00,WeatherDisplay:10.37,2013-06-13 06:01:00,
2013-06-13 01:06:00,56.5,52.0,30.01,North,0,1.2,1.4,85,0.00,CLR,,0.00,WeatherDisplay:10.37,2013-06-13 06:06:00,
2013-06-13 01:11:00,56.8,52.7,30.01,North,0,1.2,1.2,86,0.00,CLR,,0.00,WeatherDisplay:10.37,2013-06-13 06:11:00,
2013-06-13 01:16:00,57.0,52.9,30.01,North,0,2.3,2.3,86,0.00,CLR,,0.00,WeatherDisplay:10.37,2013-06-13 06:16:00,
2013-06-13 01:21:00,57.0,52.6,30.01,North,0,3.5,3.5,85,0.00,CLR,,0.00,WeatherDisplay:10.37,2013-06-13 06:21:00,
2013-06-13 01:26:00,57.0,52.6,30.01,North,0,3.5,3.5,85,0.00,CLR,,0.00,WeatherDisplay:10.37,2013-06-13 06:26:00,
2013-06-13 01:31:00,57.0,52.6,30.01,NNW,338,2.3,2.3,85,0.00,CLR,,0.00,WeatherDisplay:10.37,2013-06-13 06:31:00,
2013-06-13 01:36:00,56.8,52.4,30.01,North,0,0.0,0.5,85,0.00,CLR,,0.00,WeatherDisplay:10.37,2013-06-13 06:36:00,
2013-06-13 01:41:00,56.5,52.0,30.02,North,0,0.0,0.0,85,0.00,CLR,,0.00,WeatherDisplay:10.37,2013-06-13 06:41:00,
2013-06-13 01:46:00,56.1,51.7,30.02,North,0,0.0,0.5,85,0.00,CLR,,0.00,WeatherDisplay:10.37,2013-06-13 06:46:00,
2013-06-13 01:51:00,55.9,51.8,30.02,North,0,2.3,2.3,86,0.00,CLR,,0.00,WeatherDisplay:10.37,2013-06-13 06:51:00,
2013-06-13 01:56:00,55.9,51.8,30.02,North,0,3.5,3.5,86,0.00,CLR,,0.00,WeatherDisplay:10.37,2013-06-13 06:56:00,
2013-06-13 02:01:00,55.9,51.8,30.02,NNW,338,2.3,2.3,86,0.00,CLR,,0.00,WeatherDisplay:10.37,2013-06-13 07:01:00,
2013-06-13 02:06:00,55.9,51.8,30.02,NNE,22,1.2,1.2,86,0.00,CLR,,0.00,WeatherDisplay:10.37,2013-06-13 07:06:00,
2013-06-13 02:11:00,55.8,51.6,30.02,North,0,2.3,2.3,86,0.00,CLR,,0.00,WeatherDisplay:10.37,2013-06-13 07:11:00,
2013-06-13 02:16:00,55.8,51.6,30.02,NNE,22,1.2,1.2,86,0.00,CLR,,0.00,WeatherDisplay:10.37,2013-06-13 07:16:00,
2013-06-13 02:21:00,55.2,51.1,30.02,NNE,22,2.3,2.3,86,0.00,CLR,,0.00,WeatherDisplay:10.37,2013-06-13 07:21:00,
2013-06-13 02:26:00,54.9,50.8,30.02,NNE,22,1.2,0.0,86,0.00,CLR,,0.00,WeatherDisplay:10.37,2013-06-13 07:26:00,
2013-06-13 02:31:00,54.3,50.2,30.02,NNE,22,1.2,1.2,86,0.00,CLR,,0.00,WeatherDisplay:10.37,2013-06-13 07:31:00,
2013-06-13 02:36:00,53.8,49.7,30.02,NNE,22,0.0,0.5,86,0.00,CLR,,0.00,WeatherDisplay:10.37,2013-06-13 07:36:00,
2013-06-13 02:41:00,53.6,49.5,30.02,NNE,22,0.0,0.0,86,0.00,CLR,,0.00,WeatherDisplay:10.37,2013-06-13 07:41:00,
2013-06-13 02:46:00,53.6,49.5,30.03,NNE,22,0.0,0.5,86,0.00,CLR,,0.00,WeatherDisplay:10.37,2013-06-13 07:46:00,
2013-06-13 02:51:00,53.4,49.3,30.03,NNE,22,0.0,0.5,86,0.00,CLR,,0.00,WeatherDisplay:10.37,2013-06-13 07:51:00,
2013-06-13 02:56:00,53.4,49.6,30.03,NE,45,1.2,1.2,87,0.00,CLR,,0.00,WeatherDisplay:10.37,2013-06-13 07:56:00,
2013-06-13 03:01:00,53.2,49.5,30.03,NNE,22,0.0,0.0,87,0.00,CLR,,0.00,WeatherDisplay:10.37,2013-06-13 08:01:00,
2013-06-13 03:06:00,53.1,49.3,30.03,NNE,22,0.0,0.5,87,0.00,CLR,,0.00,WeatherDisplay:10.37,2013-06-13 08:06:00,
2013-06-13 03:11:00,53.1,49.6,30.03,NNE,22,0.0,0.2,88,0.00,CLR,,0.00,WeatherDisplay:10.37,2013-06-13 08:11:00,
2013-06-13 03:16:00,53.1,49.6,30.03,NNE,22,0.0,0.0,88,0.00,CLR,,0.00,WeatherDisplay:10.37,2013-06-13 08:16:00,
2013-06-13 03:22:00,52.9,49.4,30.03,NNE,22,0.0,0.0,88,0.00,CLR,,0.00,WeatherDisplay:10.37,2013-06-13 08:22:00,
2013-06-13 03:27:00,52.9,49.1,30.04,NNE,22,0.0,0.0,87,0.00,CLR,,0.00,WeatherDisplay:10.37,2013-06-13 08:27:00,
2013-06-13 03:32:00,53.1,49.3,30.04,NNE,22,0.0,0.0,87,0.00,CLR,,0.00,WeatherDisplay:10.37,2013-06-13 08:32:00,
2013-06-13 03:37:00,52.9,49.4,30.04,NNE,22,0.0,0.0,88,0.00,CLR,,0.00,WeatherDisplay:10.37,2013-06-13 08:37:00,
2013-06-13 03:42:00,52.9,49.1,30.04,NNE,22,0.0,0.0,87,0.00,CLR,,0.00,WeatherDisplay:10.37,2013-06-13 08:42:00,
2013-06-13 03:47:00,52.7,49.2,30.04,NNE,22,0.0,0.0,88,0.00,CLR,,0.00,WeatherDisplay:10.37,2013-06-13 08:47:00,
2013-06-13 03:52:00,52.7,49.2,30.04,NNE,22,0.0,0.0,88,0.00,CLR,,0.00,WeatherDisplay:10.37,2013-06-13 08:52:00,
2013-06-13 03:57:00,52.9,49.4,30.04,NNE,22,0.0,0.0,88,0.00,CLR,,0.00,WeatherDisplay:10.37,2013-06-13 08:57:00,
2013-06-13 04:02:00,52.9,49.4,30.04,NNE,22,0.0,0.0,88,0.00,CLR,,0.00,WeatherDisplay:10.37,2013-06-13 09:02:00,
2013-06-13 04:07:00,52.9,49.4,30.04,NNE,22,0.0,0.0,88,0.00,CLR,,0.00,WeatherDisplay:10.37,2013-06-13 09:07:00,
2013-06-13 04:12:00,52.9,49.4,30.04,NNE,22,0.0,0.0,88,0.00,CLR,,0.00,WeatherDisplay:10.37,2013-06-13 09:12:00,
2013-06-13 04:17:00,52.7,49.5,30.04,NNE,22,0.0,0.0,89,0.00,CLR,,0.00,WeatherDisplay:10.37,2013-06-13 09:17:00,
2013-06-13 04:22:00,52.5,49.4,30.05,NNE,22,0.0,0.0,89,0.00,CLR,,0.00,WeatherDisplay:10.37,2013-06-13 09:22:00,
2013-06-13 04:27:00,52.2,49.0,30.05,NNE,22,0.0,0.0,89,0.00,CLR,,0.00,WeatherDisplay:10.37,2013-06-13 09:27:00,
2013-06-13 04:32:00,51.8,49.0,30.05,NNE,22,0.0,0.5,90,0.00,CLR,,0.00,WeatherDisplay:10.37,2013-06-13 09:32:00,
2013-06-13 04:37:00,51.1,48.2,30.05,NNE,22,0.0,0.5,90,0.00,CLR,,0.00,WeatherDisplay:10.37,2013-06-13 09:37:00,
2013-06-13 04:42:00,50.5,47.7,30.05,East,90,0.0,0.0,90,0.00,CLR,,0.00,WeatherDisplay:10.37,2013-06-13 09:42:00,
2013-06-13 04:47:00,50.4,47.5,30.05,East,90,0.0,0.0,90,0.00,CLR,,0.00,WeatherDisplay:10.37,2013-06-13 09:47:00,
2013-06-13 04:52:00,50.2,47.4,30.05,East,90,0.0,0.0,90,0.00,CLR,,0.00,WeatherDisplay:10.37,2013-06-13 09:52:00,
2013-06-13 04:57:00,50.2,47.7,30.05,East,90,0.0,0.2,91,0.00,CLR,,0.00,WeatherDisplay:10.37,2013-06-13 09:57:00,
2013-06-13 05:02:00,50.2,47.7,30.05,East,90,0.0,0.0,91,0.00,CLR,,0.00,WeatherDisplay:10.37,2013-06-13 10:02:00,
2013-06-13 05:07:00,50.2,47.4,30.05,East,90,0.0,0.0,90,0.00,CLR,,0.00,WeatherDisplay:10.37,2013-06-13 10:07:00,
2013-06-13 05:12:00,50.2,47.7,30.05,East,90,0.0,0.0,91,0.00,CLR,,0.00,WeatherDisplay:10.37,2013-06-13 10:12:00,
2013-06-13 05:17:00,50.0,47.5,30.05,East,90,0.0,0.0,91,0.00,CLR,,0.00,WeatherDisplay:10.37,2013-06-13 10:17:00,
2013-06-13 05:18:00,80.2,50.1,29.99,South,172,3.0,0.0,35,0.00,CLR,,0.00,WeatherDisplay:10.37,2013-06-13 10:18:00,
2013-06-13 05:19:00,80.2,50.1,29.99,South,172,3.0,0.0,35,0.00,CLR,,0.00,WeatherDisplay:10.37,2013-06-13 10:19:00,
2013-06-13 05:20:00,80.2,50.1,29.99,South,172,3.0,0.0,35,0.00,CLR,,0.00,WeatherDisplay:10.37,2013-06-13 10:20:00,
2013-06-13 05:21:00,80.2,50.1,29.99,South,172,3.0,0.0,35,0.00,CLR,,0.00,WeatherDisplay:10.37,2013-06-13 10:21:00,
2013-06-13 05:22:00,50.0,47.5,30.06,East,90,0.0,0.0,91,0.00,CLR,,0.00,WeatherDisplay:10.37,2013-06-13 10:22:00,
2013-06-13 05:27:00,49.8,47.3,30.06,East,90,1.2,1.2,91,0.00,CLR,,0.00,WeatherDisplay:10.37,2013-06-13 10:27:00,
2013-06-13 05:32:00,49.6,47.4,30.05,East,90,1.2,1.2,92,0.00,CLR,,0.00,WeatherDisplay:10.37,2013-06-13 10:32:00,
2013-06-13 05:37:00,49.3,47.1,30.05,East,90,1.2,1.2,92,0.00,CLR,,0.00,WeatherDisplay:10.37,2013-06-13 10:37:00,
2013-06-13 05:42:00,49.3,47.1,30.06,East,90,0.0,0.5,92,0.00,CLR,,0.00,WeatherDisplay:10.37,2013-06-13 10:42:00,
2013-06-13 05:47:00,49.5,46.9,30.06,East,90,0.0,0.0,91,0.00,CLR,,0.00,WeatherDisplay:10.37,2013-06-13 10:47:00,
2013-06-13 05:52:00,49.6,47.1,30.06,East,90,0.0,0.0,91,0.00,CLR,,0.00,WeatherDisplay:10.37,2013-06-13 10:52:00,
2013-06-13 05:57:00,50.0,47.5,30.06,East,90,0.0,0.0,91,0.00,CLR,,0.00,WeatherDisplay:10.37,2013-06-13 10:57:00,
2013-06-13 06:02:00,50.2,47.7,30.06,East,90,0.0,0.0,91,0.00,CLR,,0.00,WeatherDisplay:10.37,2013-06-13 11:02:00,
2013-06-13 06:07:00,50.2,47.7,30.06,East,90,0.0,0.0,91,0.00,CLR,,0.00,WeatherDisplay:10.37,2013-06-13 11:07:00,
2013-06-13 06:12:00,50.4,47.5,30.06,East,90,0.0,0.0,90,0.00,CLR,,0.00,WeatherDisplay:10.37,2013-06-13 11:12:00,
2013-06-13 06:17:00,50.4,47.5,30.06,East,90,0.0,0.0,90,0.00,CLR,,0.00,WeatherDisplay:10.37,2013-06-13 11:17:00,
2013-06-13 06:22:00,50.7,48.2,30.06,East,90,1.2,1.2,91,0.00,CLR,,0.00,WeatherDisplay:10.37,2013-06-13 11:22:00,
2013-06-13 06:27:00,50.7,48.5,30.06,East,90,1.2,1.2,92,0.00,CLR,,0.00,WeatherDisplay:10.37,2013-06-13 11:27:00,
2013-06-13 06:32:00,51.4,48.9,30.06,East,90,1.2,1.2,91,0.00,CLR,,0.00,WeatherDisplay:10.37,2013-06-13 11:32:00,
2013-06-13 06:37:00,52.2,49.9,30.06,East,90,1.2,1.2,92,0.00,CLR,,0.00,WeatherDisplay:10.37,2013-06-13 11:37:00,
2013-06-13 06:42:00,52.7,50.4,30.06,East,90,1.2,1.2,92,0.00,CLR,,0.00,WeatherDisplay:10.37,2013-06-13 11:42:00,
2013-06-13 06:47:00,53.6,51.3,30.07,East,90,4.6,4.7,92,0.00,CLR,,0.00,WeatherDisplay:10.37,2013-06-13 11:47:00,
2013-06-13 06:52:00,54.3,51.7,30.07,ESE,112,3.5,3.5,91,0.00,CLR,,0.00,WeatherDisplay:10.37,2013-06-13 11:52:00,
2013-06-13 06:57:00,54.9,52.0,30.06,ESE,112,3.5,3.6,90,0.00,CLR,,0.00,WeatherDisplay:10.37,2013-06-13 11:57:00,
2013-06-13 07:02:00,55.6,52.4,30.07,ESE,112,5.8,5.8,89,0.00,CLR,,0.00,WeatherDisplay:10.37,2013-06-13 12:02:00,
2013-06-13 07:07:00,56.1,52.6,30.07,East,90,4.6,4.6,88,0.00,CLR,,0.00,WeatherDisplay:10.37,2013-06-13 12:07:00,
2013-06-13 07:12:00,56.5,52.7,30.07,ESE,112,4.6,4.6,87,0.00,CLR,,0.00,WeatherDisplay:10.37,2013-06-13 12:12:00,
2013-06-13 07:17:00,57.0,52.9,30.07,ESE,112,2.3,2.9,86,0.00,CLR,,0.00,WeatherDisplay:10.37,2013-06-13 12:17:00,
2013-06-13 07:22:00,57.6,53.4,30.07,East,90,4.6,4.6,86,0.00,CLR,,0.00,WeatherDisplay:10.37,2013-06-13 12:22:00,
2013-06-13 07:27:00,57.9,53.4,30.07,ESE,112,4.6,4.6,85,0.00,CLR,,0.00,WeatherDisplay:10.37,2013-06-13 12:27:00,
2013-06-13 07:32:00,58.3,53.8,30.07,ESE,112,4.6,4.7,85,0.00,CLR,,0.00,WeatherDisplay:10.37,2013-06-13 12:32:00,
2013-06-13 07:37:00,58.6,53.2,30.07,ESE,112,6.9,6.9,82,0.00,CLR,,0.00,WeatherDisplay:10.37,2013-06-13 12:37:00,
2013-06-13 07:42:00,59.0,53.5,30.07,ESE,112,3.5,3.5,82,0.00,CLR,,0.00,WeatherDisplay:10.37,2013-06-13 12:42:00,
2013-06-13 07:47:00,59.5,53.7,30.07,East,90,5.8,5.8,81,0.00,CLR,,0.00,WeatherDisplay:10.37,2013-06-13 12:47:00,
2013-06-13 07:52:00,60.3,54.1,30.07,ESE,112,6.9,6.9,80,0.00,CLR,,0.00,WeatherDisplay:10.37,2013-06-13 12:52:00,
2013-06-13 07:57:00,60.8,54.2,30.07,ESE,112,4.6,4.6,79,0.00,CLR,,0.00,WeatherDisplay:10.37,2013-06-13 12:57:00,
2013-06-13 13:03:00,73.6,47.1,30.06,ESE,112,6.9,6.9,39,0.00,CLR,,0.00,WeatherDisplay:10.37,2013-06-13 18:03:00,
2013-06-13 13:08:00,73.8,49.2,30.06,South,180,4.6,4.6,42,0.00,CLR,,0.00,WeatherDisplay:10.37,2013-06-13 18:08:00,
2013-06-13 13:13:00,73.8,49.2,30.06,South,180,1.2,4.3,42,0.00,CLR,,0.00,WeatherDisplay:10.37,2013-06-13 18:13:00,
2013-06-13 13:18:00,73.9,50.6,30.05,SSE,158,4.6,4.6,44,0.00,CLR,,0.00,WeatherDisplay:10.37,2013-06-13 18:18:00,
2013-06-13 13:23:00,74.1,43.2,30.05,East,90,3.5,3.5,33,0.00,CLR,,0.00,WeatherDisplay:10.37,2013-06-13 18:23:00,
2013-06-13 13:28:00,74.3,47.0,30.05,East,90,5.8,5.8,38,0.00,CLR,,0.00,WeatherDisplay:10.37,2013-06-13 18:28:00,
2013-06-13 13:33:00,74.1,48.2,30.04,WSW,248,6.9,6.9,40,0.00,CLR,,0.00,WeatherDisplay:10.37,2013-06-13 18:33:00,
2013-06-13 13:38:00,74.3,46.3,30.04,East,90,8.1,8.1,37,0.00,CLR,,0.00,WeatherDisplay:10.37,2013-06-13 18:38:00,
2013-06-13 13:43:00,74.7,48.1,30.04,ESE,112,8.1,8.1,39,0.00,CLR,,0.00,WeatherDisplay:10.37,2013-06-13 18:43:00,
2013-06-13 13:48:00,74.8,48.9,30.04,South,180,8.1,8.1,40,0.00,CLR,,0.00,WeatherDisplay:10.37,2013-06-13 18:48:00,
2013-06-13 13:53:00,75.0,49.7,30.04,SSW,202,3.5,3.5,41,0.00,CLR,,0.00,WeatherDisplay:10.37,2013-06-13 18:53:00,
2013-06-13 13:58:00,75.2,49.2,30.04,East,90,2.3,5.4,40,0.00,CLR,,0.00,WeatherDisplay:10.37,2013-06-13 18:58:00,
2013-06-13 14:03:00,75.2,50.5,30.04,East,90,3.5,5.4,42,0.00,CLR,,0.00,WeatherDisplay:10.37,2013-06-13 19:03:00,
2013-06-13 14:08:00,75.6,49.5,30.04,ESE,112,4.6,4.6,40,0.00,CLR,,0.00,WeatherDisplay:10.37,2013-06-13 19:08:00,
2013-06-13 14:13:00,75.6,49.5,30.04,East,90,5.8,5.8,40,0.00,CLR,,0.00,WeatherDisplay:10.37,2013-06-13 19:13:00,
2013-06-13 14:18:00,75.4,48.0,30.04,ESE,112,2.3,2.9,38,0.00,CLR,,0.00,WeatherDisplay:10.37,2013-06-13 19:18:00,
2013-06-13 14:23:00,74.7,48.1,30.03,East,90,4.6,4.6,39,0.00,CLR,,0.00,WeatherDisplay:10.37,2013-06-13 19:23:00,
2013-06-13 14:28:00,75.0,50.4,30.04,South,180,4.6,4.6,42,0.00,CLR,,0.00,WeatherDisplay:10.37,2013-06-13 19:28:00,
2013-06-13 14:33:00,75.6,50.2,30.03,East,90,2.3,2.4,41,0.00,CLR,,0.00,WeatherDisplay:10.37,2013-06-13 19:33:00,
2013-06-13 14:38:00,75.6,47.5,30.03,East,90,4.6,4.6,37,0.00,CLR,,0.00,WeatherDisplay:10.37,2013-06-13 19:38:00,
2013-06-13 14:43:00,75.7,50.4,30.03,South,180,3.5,3.5,41,0.00,CLR,,0.00,WeatherDisplay:10.37,2013-06-13 19:43:00,
2013-06-13 14:48:00,76.1,49.3,30.03,East,90,8.1,8.1,39,0.00,CLR,,0.00,WeatherDisplay:10.37,2013-06-13 19:48:00,
2013-06-13 14:53:00,76.1,50.0,30.03,ENE,68,3.5,3.8,40,0.00,CLR,,0.00,WeatherDisplay:10.37,2013-06-13 19:53:00,
2013-06-13 14:58:00,76.3,51.5,30.03,ESE,112,5.8,5.8,42,0.00,CLR,,0.00,WeatherDisplay:10.37,2013-06-13 19:58:00,
2013-06-13 15:03:00,76.6,51.8,30.02,SSW,202,3.5,3.5,42,0.00,CLR,,0.00,WeatherDisplay:10.37,2013-06-13 20:03:00,
2013-06-13 15:08:00,77.0,50.8,30.02,SW,225,4.6,4.6,40,0.00,CLR,,0.00,WeatherDisplay:10.37,2013-06-13 20:08:00,
2013-06-13 15:13:00,77.2,52.3,30.02,SSW,202,3.5,3.5,42,0.00,CLR,,0.00,WeatherDisplay:10.37,2013-06-13 20:13:00,
2013-06-13 15:18:00,77.5,51.3,30.02,East,90,4.6,4.6,40,0.00,CLR,,0.00,WeatherDisplay:10.37,2013-06-13 20:18:00,
2013-06-13 15:23:00,77.4,49.0,30.02,ESE,112,8.1,8.5,37,0.00,CLR,,0.00,WeatherDisplay:10.37,2013-06-13 20:23:00,
2013-06-13 15:28:00,77.0,50.1,30.01,South,180,2.3,2.3,39,0.00,CLR,,0.00,WeatherDisplay:10.37,2013-06-13 20:28:00,
2013-06-13 15:33:00,77.0,50.8,30.01,South,180,3.5,3.5,40,0.00,CLR,,0.00,WeatherDisplay:10.37,2013-06-13 20:33:00,
2013-06-13 15:38:00,77.2,50.3,30.01,South,180,3.5,3.8,39,0.00,CLR,,0.00,WeatherDisplay:10.37,2013-06-13 20:38:00,
2013-06-13 15:43:00,77.4,49.8,30.01,East,90,5.8,5.8,38,0.00,CLR,,0.00,WeatherDisplay:10.37,2013-06-13 20:43:00,
2013-06-13 15:48:00,77.4,49.8,30.01,SSE,158,4.6,4.7,38,0.00,CLR,,0.00,WeatherDisplay:10.37,2013-06-13 20:48:00,
2013-06-13 15:53:00,77.9,50.9,30.01,SW,225,2.3,2.3,39,0.00,CLR,,0.00,WeatherDisplay:10.37,2013-06-13 20:53:00,
2013-06-13 15:58:00,78.4,51.4,30.01,SSW,202,4.6,4.6,39,0.00,CLR,,0.00,WeatherDisplay:10.37,2013-06-13 20:58:00,
2013-06-13 16:03:00,78.8,51.7,30.01,South,180,8.1,8.1,39,0.00,CLR,,0.00,WeatherDisplay:10.37,2013-06-13 21:03:00,
2013-06-13 16:08:00,79.3,51.5,30.01,SSW,202,3.5,3.5,38,0.00,CLR,,0.00,WeatherDisplay:10.37,2013-06-13 21:08:00,
2013-06-13 16:13:00,79.5,51.7,30.00,South,180,5.8,5.8,38,0.00,CLR,,0.00,WeatherDisplay:10.37,2013-06-13 21:13:00,
2013-06-13 16:18:00,79.9,49.8,30.00,ESE,112,5.8,6.0,35,0.00,CLR,,0.00,WeatherDisplay:10.37,2013-06-13 21:18:00,
2013-06-13 16:23:00,79.9,50.5,30.00,WSW,248,2.3,2.3,36,0.00,CLR,,0.00,WeatherDisplay:10.37,2013-06-13 21:23:00,
2013-06-13 16:28:00,80.2,50.1,30.00,SE,135,1.2,1.2,35,0.00,CLR,,0.00,WeatherDisplay:10.37,2013-06-13 21:28:00,
2013-06-13 16:33:00,80.4,51.8,30.00,South,180,4.6,5.2,37,0.00,CLR,,0.00,WeatherDisplay:10.37,2013-06-13 21:33:00,
2013-06-13 16:38:00,80.6,51.9,30.00,South,180,10.4,10.4,37,0.00,CLR,,0.00,WeatherDisplay:10.37,2013-06-13 21:38:00,
2013-06-13 16:43:00,80.8,52.1,29.99,ESE,112,4.6,4.6,37,0.00,CLR,,0.00,WeatherDisplay:10.37,2013-06-13 21:43:00,
2013-06-13 16:48:00,80.4,50.3,30.00,East,90,2.3,2.6,35,0.00,CLR,,0.00,WeatherDisplay:10.37,2013-06-13 21:48:00,
2013-06-13 16:53:00,80.2,51.6,29.99,South,180,2.3,2.6,37,0.00,CLR,,0.00,WeatherDisplay:10.37,2013-06-13 21:53:00,
2013-06-13 16:58:00,80.2,49.3,29.99,South,180,8.1,8.1,34,0.00,CLR,,0.00,WeatherDisplay:10.37,2013-06-13 21:58:00,
2013-06-13 17:03:00,80.2,49.3,29.99,SE,135,3.5,3.5,34,0.00,CLR,,0.00,WeatherDisplay:10.37,2013-06-13 22:03:00,
2013-06-13 17:08:00,79.9,49.0,29.99,East,90,1.2,1.2,34,0.00,CLR,,0.00,WeatherDisplay:10.37,2013-06-13 22:08:00,
2013-06-13 17:13:00,80.1,49.9,29.99,SSW,202,5.8,5.8,35,0.00,CLR,,0.00,WeatherDisplay:10.37,2013-06-13 22:13:00,
2013-06-13 17:18:00,80.2,50.1,29.99,North,0,5.8,0.0,35,0.00,CLR,,0.00,WeatherDisplay:10.37,2013-06-13 22:18:00,
2013-06-13 17:23:00,80.8,51.3,29.99,SSW,202,1.2,1.4,36,0.00,CLR,,0.00,WeatherDisplay:10.37,2013-06-13 22:23:00,
2013-06-13 17:28:00,81.0,49.1,29.99,SE,135,5.8,6.2,33,0.00,CLR,,0.00,WeatherDisplay:10.37,2013-06-13 22:28:00,
2013-06-13 17:33:00,81.1,50.1,29.99,SW,225,4.6,4.6,34,0.00,CLR,,0.00,WeatherDisplay:10.37,2013-06-13 22:33:00,
2013-06-13 17:38:00,81.3,50.3,29.99,South,180,6.9,6.9,34,0.00,CLR,,0.00,WeatherDisplay:10.37,2013-06-13 22:38:00,
2013-06-13 17:43:00,81.5,50.4,29.98,SSE,158,2.3,2.3,34,0.00,CLR,,0.00,WeatherDisplay:10.37,2013-06-13 22:43:00,
2013-06-13 17:48:00,81.3,49.5,29.98,South,180,2.3,2.4,33,0.00,CLR,,0.00,WeatherDisplay:10.37,2013-06-13 22:48:00,
2013-06-13 17:53:00,81.0,48.3,29.98,SSE,158,3.5,3.5,32,0.00,CLR,,0.00,WeatherDisplay:10.37,2013-06-13 22:53:00,
2013-06-13 17:58:00,80.8,48.2,29.98,ESE,112,3.5,3.8,32,0.00,CLR,,0.00,WeatherDisplay:10.37,2013-06-13 22:58:00,
2013-06-13 18:03:00,80.6,48.8,29.98,South,180,5.8,8.5,33,0.00,CLR,,0.00,WeatherDisplay:10.37,2013-06-13 23:03:00,
2013-06-13 18:08:00,80.6,48.8,29.98,SSE,158,2.3,2.9,33,0.00,CLR,,0.00,WeatherDisplay:10.37,2013-06-13 23:08:00,
2013-06-13 18:14:00,80.2,49.3,29.98,SSW,202,8.1,8.1,34,0.00,CLR,,0.00,WeatherDisplay:10.37,2013-06-13 23:14:00,
2013-06-13 18:19:00,80.2,48.5,29.98,SE,135,5.8,5.8,33,0.00,CLR,,0.00,WeatherDisplay:10.37,2013-06-13 23:19:00,
2013-06-13 18:24:00,80.1,48.4,29.97,SE,135,5.8,5.8,33,0.00,CLR,,0.00,WeatherDisplay:10.37,2013-06-13 23:24:00,
2013-06-13 18:29:00,79.7,48.0,29.98,East,90,4.6,4.6,33,0.00,CLR,,0.00,WeatherDisplay:10.37,2013-06-13 23:29:00,
2013-06-13 18:34:00,79.7,48.0,29.97,SW,225,3.5,3.5,33,0.00,CLR,,0.00,WeatherDisplay:10.37,2013-06-13 23:34:00,
2013-06-13 18:39:00,79.3,47.7,29.97,ESE,112,5.8,5.8,33,0.00,CLR,,0.00,WeatherDisplay:10.37,2013-06-13 23:39:00,
2013-06-13 18:44:00,79.2,47.6,29.97,South,180,6.9,6.9,33,0.00,CLR,,0.00,WeatherDisplay:10.37,2013-06-13 23:44:00,
2013-06-13 18:49:00,79.2,47.6,29.97,East,90,5.8,5.8,33,0.00,CLR,,0.00,WeatherDisplay:10.37,2013-06-13 23:49:00,
2013-06-13 18:54:00,79.2,47.6,29.97,ESE,112,4.6,5.2,33,0.00,CLR,,0.00,WeatherDisplay:10.37,2013-06-13 23:54:00,
2013-06-13 18:59:00,79.2,47.6,29.97,ESE,112,4.6,5.6,33,0.00,CLR,,0.00,WeatherDisplay:10.37,2013-06-13 23:59:00,
2013-06-13 19:04:00,79.2,47.6,29.96,ESE,112,5.8,5.8,33,0.00,CLR,,0.00,WeatherDisplay:10.37,2013-06-14 00:04:00,
2013-06-13 19:09:00,79.0,47.4,29.96,ESE,112,5.8,5.8,33,0.00,CLR,,0.00,WeatherDisplay:10.37,2013-06-14 00:09:00,
2013-06-13 19:14:00,78.8,48.1,29.96,SE,135,4.6,4.6,34,0.00,CLR,,0.00,WeatherDisplay:10.37,2013-06-14 00:14:00,
2013-06-13 19:19:00,78.8,48.8,29.97,SSW,202,5.8,5.8,35,0.00,CLR,,0.00,WeatherDisplay:10.37,2013-06-14 00:19:00,
2013-06-13 19:24:00,79.2,47.6,29.96,SE,135,8.1,8.1,33,0.00,CLR,,0.00,WeatherDisplay:10.37,2013-06-14 00:24:00,
2013-06-13 19:29:00,79.5,47.9,29.97,ESE,112,4.6,4.9,33,0.00,CLR,,0.00,WeatherDisplay:10.37,2013-06-14 00:29:00,
2013-06-13 19:34:00,79.9,49.0,29.96,SE,135,4.6,4.6,34,0.00,CLR,,0.00,WeatherDisplay:10.37,2013-06-14 00:34:00,
2013-06-13 19:39:00,80.1,47.5,29.96,South,180,5.8,5.8,32,0.00,CLR,,0.00,WeatherDisplay:10.37,2013-06-14 00:39:00,
2013-06-13 19:44:00,79.9,48.2,29.96,ESE,112,5.8,5.8,33,0.00,CLR,,0.00,WeatherDisplay:10.37,2013-06-14 00:44:00,
2013-06-13 19:49:00,79.9,47.4,29.96,South,180,4.6,4.6,32,0.00,CLR,,0.00,WeatherDisplay:10.37,2013-06-14 00:49:00,
2013-06-13 19:54:00,79.5,47.9,29.96,SSE,158,4.6,4.7,33,0.00,CLR,,0.00,WeatherDisplay:10.37,2013-06-14 00:54:00,
2013-06-13 19:59:00,79.5,48.7,29.96,SSW,202,1.2,1.6,34,0.00,CLR,,0.00,WeatherDisplay:10.37,2013-06-14 00:59:00,
2013-06-13 20:04:00,79.5,49.5,29.96,SSE,158,1.2,1.2,35,0.00,CLR,,0.00,WeatherDisplay:10.37,2013-06-14 01:04:00,
2013-06-13 20:09:00,79.3,49.3,29.96,SSE,158,2.3,2.6,35,0.00,CLR,,0.00,WeatherDisplay:10.37,2013-06-14 01:09:00,
2013-06-13 20:14:00,79.3,49.3,29.95,SSE,158,2.3,2.3,35,0.00,CLR,,0.00,WeatherDisplay:10.37,2013-06-14 01:14:00,
2013-06-13 20:19:00,79.2,48.4,29.96,SE,135,3.5,3.5,34,0.00,CLR,,0.00,WeatherDisplay:10.37,2013-06-14 01:19:00,
2013-06-13 20:24:00,79.2,49.1,29.96,South,180,2.3,2.3,35,0.00,CLR,,0.00,WeatherDisplay:10.37,2013-06-14 01:24:00,
2013-06-13 20:29:00,79.2,49.1,29.96,SSE,158,1.2,1.2,35,0.00,CLR,,0.00,WeatherDisplay:10.37,2013-06-14 01:29:00,
2013-06-13 20:34:00,78.8,48.8,29.96,South,180,2.3,2.3,35,0.00,CLR,,0.00,WeatherDisplay:10.37,2013-06-14 01:34:00,
2013-06-13 20:39:00,78.4,48.5,29.96,SSW,202,1.2,1.2,35,0.00,CLR,,0.00,WeatherDisplay:10.37,2013-06-14 01:39:00,
2013-06-13 20:44:00,77.9,49.5,29.96,South,180,1.2,1.4,37,0.00,CLR,,0.00,WeatherDisplay:10.37,2013-06-14 01:44:00,
2013-06-13 20:49:00,77.4,49.0,29.96,South,180,2.3,2.3,37,0.00,CLR,,0.00,WeatherDisplay:10.37,2013-06-14 01:49:00,
2013-06-13 20:54:00,76.8,48.6,29.96,South,180,1.2,1.2,37,0.00,CLR,,0.00,WeatherDisplay:10.37,2013-06-14 01:54:00,
2013-06-13 20:59:00,76.3,48.8,29.95,South,180,1.2,1.4,38,0.00,CLR,,0.00,WeatherDisplay:10.37,2013-06-14 01:59:00,
2013-06-13 21:04:00,75.6,48.2,29.95,SSW,202,1.2,1.2,38,0.00,CLR,,0.00,WeatherDisplay:10.37,2013-06-14 02:04:00,
2013-06-13 21:09:00,74.8,47.5,29.95,South,180,0.0,0.0,38,0.00,CLR,,0.00,WeatherDisplay:10.37,2013-06-14 02:09:00,
2013-06-13 21:14:00,74.3,47.7,29.96,South,180,0.0,0.0,39,0.00,CLR,,0.00,WeatherDisplay:10.37,2013-06-14 02:14:00,
2013-06-13 21:19:00,73.4,46.9,29.96,South,180,1.2,1.2,39,0.00,CLR,,0.00,WeatherDisplay:10.37,2013-06-14 02:19:00,
2013-06-13 21:24:00,72.7,47.0,29.96,South,180,0.0,0.0,40,0.00,CLR,,0.00,WeatherDisplay:10.37,2013-06-14 02:24:00,
2013-06-13 21:29:00,72.0,47.0,29.95,South,180,0.0,0.0,41,0.00,CLR,,0.00,WeatherDisplay:10.37,2013-06-14 02:29:00,
2013-06-13 21:34:00,71.2,46.3,29.96,South,180,0.0,0.0,41,0.00,CLR,,0.00,WeatherDisplay:10.37,2013-06-14 02:34:00,
2013-06-13 21:39:00,70.5,46.3,29.96,South,180,0.0,0.5,42,0.00,CLR,,0.00,WeatherDisplay:10.37,2013-06-14 02:39:00,
2013-06-13 21:44:00,70.0,46.4,29.96,South,180,0.0,0.0,43,0.00,CLR,,0.00,WeatherDisplay:10.37,2013-06-14 02:44:00,
2013-06-13 21:49:00,69.4,46.0,29.96,SSW,202,0.0,0.0,43,0.00,CLR,,0.00,WeatherDisplay:10.37,2013-06-14 02:49:00,
2013-06-13 21:54:00,68.9,46.1,29.96,South,180,0.0,0.0,44,0.00,CLR,,0.00,WeatherDisplay:10.37,2013-06-14 02:54:00,
2013-06-13 21:59:00,68.5,45.1,29.96,South,180,0.0,0.0,43,0.00,CLR,,0.00,WeatherDisplay:10.37,2013-06-14 02:59:00,
2013-06-13 22:04:00,68.0,45.3,29.96,South,180,1.2,1.2,44,0.00,CLR,,0.00,WeatherDisplay:10.37,2013-06-14 03:04:00,
2013-06-13 22:09:00,67.6,44.9,29.96,ESE,112,1.2,1.2,44,0.00,CLR,,0.00,WeatherDisplay:10.37,2013-06-14 03:09:00,
2013-06-13 22:14:00,67.3,45.2,29.96,ESE,112,2.3,2.3,45,0.00,CLR,,0.00,WeatherDisplay:10.37,2013-06-14 03:14:00,
2013-06-13 22:19:00,67.1,45.6,29.96,ESE,112,1.2,1.2,46,0.00,CLR,,0.00,WeatherDisplay:10.37,2013-06-14 03:19:00,
2013-06-13 22:24:00,66.7,45.3,29.96,ESE,112,2.3,2.3,46,0.00,CLR,,0.00,WeatherDisplay:10.37,2013-06-14 03:24:00,
2013-06-13 22:29:00,66.6,45.1,29.96,ESE,112,1.2,1.2,46,0.00,CLR,,0.00,WeatherDisplay:10.37,2013-06-14 03:29:00,
2013-06-13 22:34:00,66.4,45.0,29.96,ESE,112,1.2,1.2,46,0.00,CLR,,0.00,WeatherDisplay:10.37,2013-06-14 03:34:00,
2013-06-13 22:39:00,66.2,44.8,29.96,South,180,1.2,1.2,46,0.00,CLR,,0.00,WeatherDisplay:10.37,2013-06-14 03:39:00,
2013-06-13 22:44:00,65.8,44.5,29.96,ESE,112,1.2,1.4,46,0.00,CLR,,0.00,WeatherDisplay:10.37,2013-06-14 03:44:00,
2013-06-13 22:49:00,65.8,44.5,29.96,ESE,112,2.3,2.3,46,0.00,CLR,,0.00,WeatherDisplay:10.37,2013-06-14 03:49:00,
2013-06-13 22:54:00,65.5,44.1,29.96,ESE,112,1.2,1.2,46,0.00,CLR,,0.00,WeatherDisplay:10.37,2013-06-14 03:54:00,
2013-06-13 22:59:00,65.7,44.3,29.95,ESE,112,2.3,2.3,46,0.00,CLR,,0.00,WeatherDisplay:10.37,2013-06-14 03:59:00,
2013-06-13 23:01:00,65.5,44.1,29.95,South,180,1.2,1.6,46,0.00,CLR,,0.00,WeatherDisplay:10.37,2013-06-14 04:01:00,
2013-06-13 23:06:00,65.3,44.0,29.95,ESE,112,1.2,1.2,46,0.00,CLR,,0.00,WeatherDisplay:10.37,2013-06-14 04:06:00,
2013-06-13 23:11:00,65.1,44.4,29.95,ESE,112,2.3,2.4,47,0.00,CLR,,0.00,WeatherDisplay:10.37,2013-06-14 04:11:00,
2013-06-13 23:16:00,64.8,44.6,29.95,East,90,1.2,1.4,48,0.00,CLR,,0.00,WeatherDisplay:10.37,2013-06-14 04:16:00,
2013-06-13 23:21:00,63.5,44.5,29.95,East,90,2.3,2.3,50,0.00,CLR,,0.00,WeatherDisplay:10.37,2013-06-14 04:21:00,
2013-06-13 23:26:00,63.0,44.0,29.95,ESE,112,1.2,1.2,50,0.00,CLR,,0.00,WeatherDisplay:10.37,2013-06-14 04:26:00,
2013-06-13 23:31:00,63.0,44.0,29.95,ESE,112,1.2,1.6,50,0.00,CLR,,0.00,WeatherDisplay:10.37,2013-06-14 04:31:00,
2013-06-13 23:36:00,62.8,43.9,29.95,ESE,112,1.2,1.2,50,0.00,CLR,,0.00,WeatherDisplay:10.37,2013-06-14 04:36:00,
2013-06-13 23:41:00,62.6,44.2,29.95,ESE,112,1.2,1.4,51,0.00,CLR,,0.00,WeatherDisplay:10.37,2013-06-14 04:41:00,
2013-06-13 23:46:00,62.2,43.9,29.95,South,180,1.2,1.2,51,0.00,CLR,,0.00,WeatherDisplay:10.37,2013-06-14 04:46:00,
2013-06-13 23:51:00,62.1,44.2,29.95,ESE,112,2.3,2.3,52,0.00,CLR,,0.00,WeatherDisplay:10.37,2013-06-14 04:51:00,
2013-06-13 23:56:00,61.9,44.1,29.95,ESE,112,2.3,2.6,52,0.00,CLR,,0.00,WeatherDisplay:10.37,2013-06-14 04:56:00,